sensor_id;sensor_type;location;lat;lon;timestamp;P1;durP1;ratioP1;P2;durP2;ratioP2
44276;SDS011;29973;43.742;1.236;2023-05-07T00:01:45;13.57;;;4.70;;
44276;SDS011;29973;43.742;1.236;2023-05-07T00:04:11;7.43;;;4.68;;
44276;SDS011;29973;43.742;1.236;2023-05-07T00:06:38;10.75;;;4.13;;
44276;SDS011;29973;43.742;1.236;2023-05-07T00:09:04;11.32;;;4.07;;
44276;SDS011;29973;43.742;1.236;2023-05-07T00:11:29;10.85;;;4.75;;
44276;SDS011;29973;43.742;1.236;2023-05-07T00:13:55;14.05;;;4.82;;
44276;SDS011;29973;43.742;1.236;2023-05-07T00:16:21;16.98;;;4.68;;
44276;SDS011;29973;43.742;1.236;2023-05-07T00:18:46;18.73;;;4.60;;
44276;SDS011;29973;43.742;1.236;2023-05-07T00:21:12;16.50;;;5.28;;
44276;SDS011;29973;43.742;1.236;2023-05-07T00:23:38;13.98;;;5.47;;
44276;SDS011;29973;43.742;1.236;2023-05-07T00:26:04;15.07;;;5.00;;
44276;SDS011;29973;43.742;1.236;2023-05-07T00:28:29;10.48;;;4.30;;
44276;SDS011;29973;43.742;1.236;2023-05-07T00:30:55;16.67;;;4.75;;
44276;SDS011;29973;43.742;1.236;2023-05-07T00:33:21;11.98;;;4.10;;
44276;SDS011;29973;43.742;1.236;2023-05-07T00:35:47;15.48;;;4.18;;
44276;SDS011;29973;43.742;1.236;2023-05-07T00:38:13;15.52;;;4.82;;
44276;SDS011;29973;43.742;1.236;2023-05-07T00:40:39;13.63;;;3.72;;
44276;SDS011;29973;43.742;1.236;2023-05-07T00:43:05;15.43;;;4.47;;
44276;SDS011;29973;43.742;1.236;2023-05-07T00:45:33;18.70;;;4.03;;
44276;SDS011;29973;43.742;1.236;2023-05-07T00:48:00;10.82;;;4.00;;
44276;SDS011;29973;43.742;1.236;2023-05-07T00:50:27;14.52;;;4.72;;
44276;SDS011;29973;43.742;1.236;2023-05-07T00:52:54;12.10;;;3.78;;
44276;SDS011;29973;43.742;1.236;2023-05-07T00:55:21;8.45;;;3.58;;
44276;SDS011;29973;43.742;1.236;2023-05-07T00:57:47;12.95;;;4.68;;
44276;SDS011;29973;43.742;1.236;2023-05-07T01:00:15;16.60;;;4.13;;
44276;SDS011;29973;43.742;1.236;2023-05-07T01:02:41;11.93;;;4.05;;
44276;SDS011;29973;43.742;1.236;2023-05-07T01:05:08;11.32;;;3.63;;
44276;SDS011;29973;43.742;1.236;2023-05-07T01:07:36;11.15;;;3.28;;
44276;SDS011;29973;43.742;1.236;2023-05-07T01:10:04;13.45;;;4.03;;
44276;SDS011;29973;43.742;1.236;2023-05-07T01:12:31;11.82;;;4.00;;
44276;SDS011;29973;43.742;1.236;2023-05-07T01:14:57;12.55;;;4.32;;
44276;SDS011;29973;43.742;1.236;2023-05-07T01:17:23;16.90;;;4.18;;
44276;SDS011;29973;43.742;1.236;2023-05-07T01:19:49;18.55;;;4.63;;
44276;SDS011;29973;43.742;1.236;2023-05-07T01:22:16;9.23;;;3.75;;
44276;SDS011;29973;43.742;1.236;2023-05-07T01:24:45;13.15;;;3.67;;
44276;SDS011;29973;43.742;1.236;2023-05-07T01:27:11;16.67;;;3.97;;
44276;SDS011;29973;43.742;1.236;2023-05-07T01:29:37;14.88;;;3.95;;
44276;SDS011;29973;43.742;1.236;2023-05-07T01:32:03;15.90;;;4.18;;
44276;SDS011;29973;43.742;1.236;2023-05-07T01:34:31;17.10;;;4.30;;
44276;SDS011;29973;43.742;1.236;2023-05-07T01:36:59;17.63;;;4.90;;
44276;SDS011;29973;43.742;1.236;2023-05-07T01:39:28;23.23;;;4.93;;
44276;SDS011;29973;43.742;1.236;2023-05-07T01:41:55;12.18;;;3.85;;
44276;SDS011;29973;43.742;1.236;2023-05-07T01:44:21;18.83;;;4.68;;
44276;SDS011;29973;43.742;1.236;2023-05-07T01:46:48;16.60;;;4.35;;
44276;SDS011;29973;43.742;1.236;2023-05-07T01:49:15;16.88;;;4.55;;
44276;SDS011;29973;43.742;1.236;2023-05-07T01:51:41;21.42;;;4.78;;
44276;SDS011;29973;43.742;1.236;2023-05-07T01:54:07;14.55;;;4.25;;
44276;SDS011;29973;43.742;1.236;2023-05-07T01:56:33;20.23;;;5.10;;
44276;SDS011;29973;43.742;1.236;2023-05-07T01:59:00;12.30;;;4.50;;
44276;SDS011;29973;43.742;1.236;2023-05-07T02:01:27;18.27;;;5.13;;
44276;SDS011;29973;43.742;1.236;2023-05-07T02:03:52;21.75;;;5.50;;
44276;SDS011;29973;43.742;1.236;2023-05-07T02:06:19;19.80;;;4.75;;
44276;SDS011;29973;43.742;1.236;2023-05-07T02:08:45;28.10;;;4.55;;
44276;SDS011;29973;43.742;1.236;2023-05-07T02:11:12;20.05;;;4.60;;
44276;SDS011;29973;43.742;1.236;2023-05-07T02:13:38;23.40;;;5.40;;
44276;SDS011;29973;43.742;1.236;2023-05-07T02:16:04;18.80;;;5.22;;
44276;SDS011;29973;43.742;1.236;2023-05-07T02:18:30;15.35;;;4.75;;
44276;SDS011;29973;43.742;1.236;2023-05-07T02:20:56;16.58;;;5.18;;
44276;SDS011;29973;43.742;1.236;2023-05-07T02:23:22;23.50;;;4.95;;
44276;SDS011;29973;43.742;1.236;2023-05-07T02:25:48;18.60;;;5.28;;
44276;SDS011;29973;43.742;1.236;2023-05-07T02:28:14;23.85;;;6.22;;
44276;SDS011;29973;43.742;1.236;2023-05-07T02:30:40;21.13;;;5.63;;
44276;SDS011;29973;43.742;1.236;2023-05-07T02:33:06;23.85;;;5.40;;
44276;SDS011;29973;43.742;1.236;2023-05-07T02:35:33;12.93;;;4.50;;
44276;SDS011;29973;43.742;1.236;2023-05-07T02:37:58;18.92;;;5.32;;
44276;SDS011;29973;43.742;1.236;2023-05-07T02:40:24;17.48;;;5.25;;
44276;SDS011;29973;43.742;1.236;2023-05-07T02:42:50;24.27;;;5.75;;
44276;SDS011;29973;43.742;1.236;2023-05-07T02:45:16;26.95;;;6.05;;
44276;SDS011;29973;43.742;1.236;2023-05-07T02:47:41;24.65;;;5.80;;
44276;SDS011;29973;43.742;1.236;2023-05-07T02:50:07;19.98;;;5.80;;
44276;SDS011;29973;43.742;1.236;2023-05-07T02:52:33;18.77;;;6.10;;
44276;SDS011;29973;43.742;1.236;2023-05-07T02:54:59;26.80;;;6.00;;
44276;SDS011;29973;43.742;1.236;2023-05-07T02:57:24;19.55;;;5.53;;
44276;SDS011;29973;43.742;1.236;2023-05-07T02:59:50;16.58;;;5.22;;
44276;SDS011;29973;43.742;1.236;2023-05-07T03:02:16;25.38;;;5.70;;
44276;SDS011;29973;43.742;1.236;2023-05-07T03:04:42;22.83;;;5.70;;
44276;SDS011;29973;43.742;1.236;2023-05-07T03:07:07;19.65;;;5.07;;
44276;SDS011;29973;43.742;1.236;2023-05-07T03:09:33;20.17;;;5.60;;
44276;SDS011;29973;43.742;1.236;2023-05-07T03:11:59;31.15;;;5.95;;
44276;SDS011;29973;43.742;1.236;2023-05-07T03:14:24;21.33;;;5.70;;
44276;SDS011;29973;43.742;1.236;2023-05-07T03:16:50;26.05;;;5.93;;
44276;SDS011;29973;43.742;1.236;2023-05-07T03:19:16;26.45;;;5.78;;
44276;SDS011;29973;43.742;1.236;2023-05-07T03:21:42;19.65;;;5.05;;
44276;SDS011;29973;43.742;1.236;2023-05-07T03:24:07;17.00;;;5.07;;
44276;SDS011;29973;43.742;1.236;2023-05-07T03:26:35;20.90;;;5.57;;
44276;SDS011;29973;43.742;1.236;2023-05-07T03:29:01;23.48;;;5.70;;
44276;SDS011;29973;43.742;1.236;2023-05-07T03:31:27;16.27;;;6.07;;
44276;SDS011;29973;43.742;1.236;2023-05-07T03:33:53;24.13;;;5.65;;
44276;SDS011;29973;43.742;1.236;2023-05-07T03:36:20;16.25;;;5.40;;
44276;SDS011;29973;43.742;1.236;2023-05-07T03:38:46;18.50;;;5.05;;
44276;SDS011;29973;43.742;1.236;2023-05-07T03:41:13;19.67;;;5.18;;
44276;SDS011;29973;43.742;1.236;2023-05-07T03:43:39;17.77;;;5.35;;
44276;SDS011;29973;43.742;1.236;2023-05-07T03:46:04;14.73;;;5.28;;
44276;SDS011;29973;43.742;1.236;2023-05-07T03:48:31;13.55;;;5.55;;
44276;SDS011;29973;43.742;1.236;2023-05-07T03:50:57;22.40;;;6.05;;
44276;SDS011;29973;43.742;1.236;2023-05-07T03:53:23;23.65;;;5.20;;
44276;SDS011;29973;43.742;1.236;2023-05-07T03:55:49;15.88;;;5.18;;
44276;SDS011;29973;43.742;1.236;2023-05-07T03:58:15;21.17;;;5.93;;
44276;SDS011;29973;43.742;1.236;2023-05-07T04:00:40;22.77;;;4.70;;
44276;SDS011;29973;43.742;1.236;2023-05-07T04:03:06;19.40;;;5.65;;
44276;SDS011;29973;43.742;1.236;2023-05-07T04:05:32;20.17;;;5.10;;
44276;SDS011;29973;43.742;1.236;2023-05-07T04:07:58;20.08;;;5.25;;
44276;SDS011;29973;43.742;1.236;2023-05-07T04:10:25;18.83;;;5.35;;
44276;SDS011;29973;43.742;1.236;2023-05-07T04:12:50;18.50;;;5.03;;
44276;SDS011;29973;43.742;1.236;2023-05-07T04:15:16;24.27;;;5.68;;
44276;SDS011;29973;43.742;1.236;2023-05-07T04:17:42;17.20;;;5.38;;
44276;SDS011;29973;43.742;1.236;2023-05-07T04:20:13;11.30;;;5.53;;
44276;SDS011;29973;43.742;1.236;2023-05-07T04:22:40;22.17;;;5.75;;
44276;SDS011;29973;43.742;1.236;2023-05-07T04:25:06;15.50;;;5.70;;
44276;SDS011;29973;43.742;1.236;2023-05-07T04:27:34;17.20;;;5.85;;
44276;SDS011;29973;43.742;1.236;2023-05-07T04:30:00;18.80;;;5.65;;
44276;SDS011;29973;43.742;1.236;2023-05-07T04:32:27;17.73;;;4.95;;
44276;SDS011;29973;43.742;1.236;2023-05-07T04:34:54;20.77;;;5.47;;
44276;SDS011;29973;43.742;1.236;2023-05-07T04:37:20;19.55;;;5.13;;
44276;SDS011;29973;43.742;1.236;2023-05-07T04:39:46;18.42;;;4.78;;
44276;SDS011;29973;43.742;1.236;2023-05-07T04:42:16;22.77;;;4.50;;
44276;SDS011;29973;43.742;1.236;2023-05-07T04:44:43;14.27;;;4.18;;
44276;SDS011;29973;43.742;1.236;2023-05-07T04:47:09;12.85;;;4.70;;
44276;SDS011;29973;43.742;1.236;2023-05-07T04:49:35;17.08;;;4.35;;
44276;SDS011;29973;43.742;1.236;2023-05-07T04:52:02;17.27;;;5.18;;
44276;SDS011;29973;43.742;1.236;2023-05-07T04:54:28;16.75;;;5.10;;
44276;SDS011;29973;43.742;1.236;2023-05-07T04:56:54;19.35;;;5.30;;
44276;SDS011;29973;43.742;1.236;2023-05-07T04:59:20;17.67;;;4.82;;
44276;SDS011;29973;43.742;1.236;2023-05-07T05:01:46;19.63;;;4.90;;
44276;SDS011;29973;43.742;1.236;2023-05-07T05:04:12;23.40;;;5.05;;
44276;SDS011;29973;43.742;1.236;2023-05-07T05:06:38;15.40;;;5.00;;
44276;SDS011;29973;43.742;1.236;2023-05-07T05:09:04;22.48;;;5.18;;
44276;SDS011;29973;43.742;1.236;2023-05-07T05:11:30;19.95;;;5.20;;
44276;SDS011;29973;43.742;1.236;2023-05-07T05:13:56;15.43;;;4.60;;
44276;SDS011;29973;43.742;1.236;2023-05-07T05:16:22;20.00;;;5.00;;
44276;SDS011;29973;43.742;1.236;2023-05-07T05:18:48;18.63;;;5.32;;
44276;SDS011;29973;43.742;1.236;2023-05-07T05:21:13;17.98;;;5.03;;
44276;SDS011;29973;43.742;1.236;2023-05-07T05:23:39;24.35;;;5.28;;
44276;SDS011;29973;43.742;1.236;2023-05-07T05:26:05;18.65;;;5.00;;
44276;SDS011;29973;43.742;1.236;2023-05-07T05:28:31;18.23;;;5.07;;
44276;SDS011;29973;43.742;1.236;2023-05-07T05:30:56;15.13;;;4.45;;
44276;SDS011;29973;43.742;1.236;2023-05-07T05:33:22;15.23;;;4.65;;
44276;SDS011;29973;43.742;1.236;2023-05-07T05:35:49;15.95;;;4.22;;
44276;SDS011;29973;43.742;1.236;2023-05-07T05:38:14;17.60;;;4.80;;
44276;SDS011;29973;43.742;1.236;2023-05-07T05:40:40;20.85;;;4.68;;
44276;SDS011;29973;43.742;1.236;2023-05-07T05:43:06;16.95;;;4.40;;
44276;SDS011;29973;43.742;1.236;2023-05-07T05:45:32;16.52;;;3.92;;
44276;SDS011;29973;43.742;1.236;2023-05-07T05:47:57;19.17;;;4.50;;
44276;SDS011;29973;43.742;1.236;2023-05-07T05:50:23;13.30;;;4.55;;
44276;SDS011;29973;43.742;1.236;2023-05-07T05:52:49;19.90;;;4.57;;
44276;SDS011;29973;43.742;1.236;2023-05-07T05:55:15;21.88;;;4.15;;
44276;SDS011;29973;43.742;1.236;2023-05-07T05:57:41;19.25;;;4.90;;
44276;SDS011;29973;43.742;1.236;2023-05-07T06:00:08;15.82;;;4.30;;
44276;SDS011;29973;43.742;1.236;2023-05-07T06:02:34;21.98;;;4.18;;
44276;SDS011;29973;43.742;1.236;2023-05-07T06:05:00;13.65;;;4.28;;
44276;SDS011;29973;43.742;1.236;2023-05-07T06:07:26;10.80;;;4.40;;
44276;SDS011;29973;43.742;1.236;2023-05-07T06:09:51;19.10;;;4.55;;
44276;SDS011;29973;43.742;1.236;2023-05-07T06:12:20;19.55;;;4.95;;
44276;SDS011;29973;43.742;1.236;2023-05-07T06:14:46;19.85;;;4.75;;
44276;SDS011;29973;43.742;1.236;2023-05-07T06:17:12;19.48;;;5.15;;
44276;SDS011;29973;43.742;1.236;2023-05-07T06:19:38;17.77;;;4.53;;
44276;SDS011;29973;43.742;1.236;2023-05-07T06:22:03;20.23;;;5.05;;
44276;SDS011;29973;43.742;1.236;2023-05-07T06:24:29;14.38;;;4.18;;
44276;SDS011;29973;43.742;1.236;2023-05-07T06:26:55;17.08;;;4.45;;
44276;SDS011;29973;43.742;1.236;2023-05-07T06:29:21;17.20;;;4.18;;
44276;SDS011;29973;43.742;1.236;2023-05-07T06:31:46;12.65;;;4.30;;
44276;SDS011;29973;43.742;1.236;2023-05-07T06:34:12;21.67;;;4.68;;
44276;SDS011;29973;43.742;1.236;2023-05-07T06:36:39;13.70;;;4.95;;
44276;SDS011;29973;43.742;1.236;2023-05-07T06:39:06;15.27;;;4.28;;
44276;SDS011;29973;43.742;1.236;2023-05-07T06:41:31;14.27;;;4.97;;
44276;SDS011;29973;43.742;1.236;2023-05-07T06:43:57;16.10;;;4.57;;
44276;SDS011;29973;43.742;1.236;2023-05-07T06:46:23;15.52;;;3.72;;
44276;SDS011;29973;43.742;1.236;2023-05-07T06:48:48;23.88;;;5.10;;
44276;SDS011;29973;43.742;1.236;2023-05-07T06:51:14;20.92;;;4.70;;
44276;SDS011;29973;43.742;1.236;2023-05-07T06:53:40;20.95;;;4.85;;
44276;SDS011;29973;43.742;1.236;2023-05-07T06:56:06;17.10;;;4.72;;
44276;SDS011;29973;43.742;1.236;2023-05-07T06:58:31;24.80;;;4.65;;
44276;SDS011;29973;43.742;1.236;2023-05-07T07:00:58;14.27;;;4.50;;
44276;SDS011;29973;43.742;1.236;2023-05-07T07:03:23;20.13;;;4.65;;
44276;SDS011;29973;43.742;1.236;2023-05-07T07:05:52;22.08;;;4.55;;
44276;SDS011;29973;43.742;1.236;2023-05-07T07:08:19;19.42;;;4.28;;
44276;SDS011;29973;43.742;1.236;2023-05-07T07:10:46;18.23;;;4.80;;
44276;SDS011;29973;43.742;1.236;2023-05-07T07:13:12;16.77;;;5.10;;
44276;SDS011;29973;43.742;1.236;2023-05-07T07:15:38;16.10;;;4.60;;
44276;SDS011;29973;43.742;1.236;2023-05-07T07:18:04;19.92;;;4.45;;
44276;SDS011;29973;43.742;1.236;2023-05-07T07:20:29;16.67;;;4.43;;
44276;SDS011;29973;43.742;1.236;2023-05-07T07:22:55;15.70;;;4.15;;
44276;SDS011;29973;43.742;1.236;2023-05-07T07:25:21;19.77;;;4.88;;
44276;SDS011;29973;43.742;1.236;2023-05-07T07:27:46;14.02;;;4.63;;
44276;SDS011;29973;43.742;1.236;2023-05-07T07:30:12;19.02;;;4.70;;
44276;SDS011;29973;43.742;1.236;2023-05-07T07:32:38;17.52;;;4.75;;
44276;SDS011;29973;43.742;1.236;2023-05-07T07:35:04;13.75;;;4.20;;
44276;SDS011;29973;43.742;1.236;2023-05-07T07:37:30;16.30;;;4.60;;
44276;SDS011;29973;43.742;1.236;2023-05-07T07:39:56;19.02;;;4.43;;
44276;SDS011;29973;43.742;1.236;2023-05-07T07:42:21;10.75;;;3.85;;
44276;SDS011;29973;43.742;1.236;2023-05-07T07:44:47;18.90;;;4.43;;
44276;SDS011;29973;43.742;1.236;2023-05-07T07:47:13;20.70;;;4.10;;
44276;SDS011;29973;43.742;1.236;2023-05-07T07:49:39;15.35;;;4.68;;
44276;SDS011;29973;43.742;1.236;2023-05-07T07:52:05;16.27;;;3.85;;
44276;SDS011;29973;43.742;1.236;2023-05-07T07:54:30;13.68;;;3.85;;
44276;SDS011;29973;43.742;1.236;2023-05-07T07:56:56;22.27;;;4.22;;
44276;SDS011;29973;43.742;1.236;2023-05-07T07:59:22;14.60;;;4.20;;
44276;SDS011;29973;43.742;1.236;2023-05-07T08:01:48;10.13;;;3.33;;
44276;SDS011;29973;43.742;1.236;2023-05-07T08:04:15;17.60;;;4.35;;
44276;SDS011;29973;43.742;1.236;2023-05-07T08:06:41;14.43;;;3.95;;
44276;SDS011;29973;43.742;1.236;2023-05-07T08:09:07;14.05;;;3.85;;
44276;SDS011;29973;43.742;1.236;2023-05-07T08:11:33;13.90;;;3.53;;
44276;SDS011;29973;43.742;1.236;2023-05-07T08:13:59;15.02;;;2.95;;
44276;SDS011;29973;43.742;1.236;2023-05-07T08:16:25;17.38;;;3.75;;
44276;SDS011;29973;43.742;1.236;2023-05-07T08:18:51;16.40;;;4.07;;
44276;SDS011;29973;43.742;1.236;2023-05-07T08:21:16;13.68;;;4.28;;
44276;SDS011;29973;43.742;1.236;2023-05-07T08:23:42;13.98;;;3.72;;
44276;SDS011;29973;43.742;1.236;2023-05-07T08:26:08;10.93;;;3.67;;
44276;SDS011;29973;43.742;1.236;2023-05-07T08:28:34;12.55;;;3.72;;
44276;SDS011;29973;43.742;1.236;2023-05-07T08:31:00;17.15;;;3.22;;
44276;SDS011;29973;43.742;1.236;2023-05-07T08:33:26;14.25;;;2.92;;
44276;SDS011;29973;43.742;1.236;2023-05-07T08:35:52;15.10;;;3.25;;
44276;SDS011;29973;43.742;1.236;2023-05-07T08:38:17;22.60;;;4.15;;
44276;SDS011;29973;43.742;1.236;2023-05-07T08:40:43;16.30;;;3.67;;
44276;SDS011;29973;43.742;1.236;2023-05-07T08:43:11;11.10;;;3.08;;
44276;SDS011;29973;43.742;1.236;2023-05-07T08:45:39;16.67;;;3.72;;
44276;SDS011;29973;43.742;1.236;2023-05-07T08:48:08;14.75;;;3.05;;
44276;SDS011;29973;43.742;1.236;2023-05-07T08:50:37;12.00;;;3.20;;
44276;SDS011;29973;43.742;1.236;2023-05-07T08:53:03;17.58;;;4.25;;
44276;SDS011;29973;43.742;1.236;2023-05-07T08:55:29;9.57;;;3.20;;
44276;SDS011;29973;43.742;1.236;2023-05-07T08:57:55;18.17;;;4.32;;
44276;SDS011;29973;43.742;1.236;2023-05-07T09:00:21;20.73;;;3.63;;
44276;SDS011;29973;43.742;1.236;2023-05-07T09:02:47;15.32;;;4.22;;
44276;SDS011;29973;43.742;1.236;2023-05-07T09:05:12;17.40;;;3.65;;
44276;SDS011;29973;43.742;1.236;2023-05-07T09:07:39;16.65;;;3.97;;
44276;SDS011;29973;43.742;1.236;2023-05-07T09:10:05;20.33;;;4.40;;
44276;SDS011;29973;43.742;1.236;2023-05-07T09:12:31;18.58;;;3.85;;
44276;SDS011;29973;43.742;1.236;2023-05-07T09:14:58;14.02;;;4.20;;
44276;SDS011;29973;43.742;1.236;2023-05-07T09:17:24;20.08;;;4.78;;
44276;SDS011;29973;43.742;1.236;2023-05-07T09:19:50;15.40;;;4.80;;
44276;SDS011;29973;43.742;1.236;2023-05-07T09:22:16;25.02;;;6.07;;
44276;SDS011;29973;43.742;1.236;2023-05-07T09:24:47;24.90;;;6.18;;
44276;SDS011;29973;43.742;1.236;2023-05-07T09:27:13;20.27;;;5.68;;
44276;SDS011;29973;43.742;1.236;2023-05-07T09:29:40;15.80;;;4.28;;
44276;SDS011;29973;43.742;1.236;2023-05-07T09:32:06;12.15;;;3.60;;
44276;SDS011;29973;43.742;1.236;2023-05-07T09:34:33;17.77;;;4.18;;
44276;SDS011;29973;43.742;1.236;2023-05-07T09:37:03;14.65;;;3.47;;
44276;SDS011;29973;43.742;1.236;2023-05-07T09:39:42;15.82;;;3.55;;
44276;SDS011;29973;43.742;1.236;2023-05-07T09:42:09;15.13;;;3.63;;
44276;SDS011;29973;43.742;1.236;2023-05-07T09:44:36;13.57;;;3.47;;
44276;SDS011;29973;43.742;1.236;2023-05-07T09:47:06;12.70;;;3.97;;
44276;SDS011;29973;43.742;1.236;2023-05-07T09:49:36;14.98;;;3.90;;
44276;SDS011;29973;43.742;1.236;2023-05-07T09:52:05;11.77;;;4.32;;
44276;SDS011;29973;43.742;1.236;2023-05-07T09:54:35;13.30;;;4.00;;
44276;SDS011;29973;43.742;1.236;2023-05-07T09:57:03;15.30;;;3.97;;
44276;SDS011;29973;43.742;1.236;2023-05-07T09:59:33;21.15;;;4.35;;
44276;SDS011;29973;43.742;1.236;2023-05-07T10:02:01;14.32;;;3.40;;
44276;SDS011;29973;43.742;1.236;2023-05-07T10:04:29;15.25;;;2.97;;
44276;SDS011;29973;43.742;1.236;2023-05-07T10:06:57;11.65;;;3.47;;
44276;SDS011;29973;43.742;1.236;2023-05-07T10:09:23;13.07;;;3.20;;
44276;SDS011;29973;43.742;1.236;2023-05-07T10:11:51;18.35;;;2.85;;
44276;SDS011;29973;43.742;1.236;2023-05-07T10:14:19;14.75;;;3.22;;
44276;SDS011;29973;43.742;1.236;2023-05-07T10:16:46;16.02;;;3.35;;
44276;SDS011;29973;43.742;1.236;2023-05-07T10:19:13;13.45;;;3.42;;
44276;SDS011;29973;43.742;1.236;2023-05-07T10:21:44;19.05;;;4.03;;
44276;SDS011;29973;43.742;1.236;2023-05-07T10:24:20;12.65;;;3.40;;
44276;SDS011;29973;43.742;1.236;2023-05-07T10:26:51;12.43;;;3.33;;
44276;SDS011;29973;43.742;1.236;2023-05-07T10:34:45;15.20;;;3.60;;
44276;SDS011;29973;43.742;1.236;2023-05-07T10:37:15;17.92;;;3.15;;
44276;SDS011;29973;43.742;1.236;2023-05-07T10:39:41;11.30;;;3.10;;
44276;SDS011;29973;43.742;1.236;2023-05-07T10:42:08;16.73;;;3.15;;
44276;SDS011;29973;43.742;1.236;2023-05-07T10:44:34;12.35;;;3.28;;
44276;SDS011;29973;43.742;1.236;2023-05-07T10:47:09;15.98;;;3.22;;
44276;SDS011;29973;43.742;1.236;2023-05-07T10:49:37;8.68;;;2.70;;
44276;SDS011;29973;43.742;1.236;2023-05-07T10:52:20;16.27;;;3.28;;
44276;SDS011;29973;43.742;1.236;2023-05-07T10:55:18;12.85;;;3.05;;
44276;SDS011;29973;43.742;1.236;2023-05-07T10:57:44;18.75;;;3.45;;
44276;SDS011;29973;43.742;1.236;2023-05-07T11:05:29;14.20;;;3.65;;
44276;SDS011;29973;43.742;1.236;2023-05-07T11:10:23;17.20;;;3.15;;
44276;SDS011;29973;43.742;1.236;2023-05-07T11:13:16;11.18;;;2.72;;
44276;SDS011;29973;43.742;1.236;2023-05-07T11:15:46;8.50;;;2.38;;
44276;SDS011;29973;43.742;1.236;2023-05-07T11:18:14;13.90;;;2.90;;
44276;SDS011;29973;43.742;1.236;2023-05-07T11:26:12;8.68;;;2.50;;
44276;SDS011;29973;43.742;1.236;2023-05-07T11:28:39;9.85;;;2.53;;
44276;SDS011;29973;43.742;1.236;2023-05-07T11:31:06;11.52;;;2.55;;
44276;SDS011;29973;43.742;1.236;2023-05-07T11:33:32;10.18;;;2.35;;
44276;SDS011;29973;43.742;1.236;2023-05-07T11:35:59;17.92;;;2.85;;
44276;SDS011;29973;43.742;1.236;2023-05-07T11:38:26;9.77;;;2.53;;
44276;SDS011;29973;43.742;1.236;2023-05-07T11:40:55;11.57;;;2.50;;
44276;SDS011;29973;43.742;1.236;2023-05-07T11:43:23;9.55;;;2.13;;
44276;SDS011;29973;43.742;1.236;2023-05-07T11:45:49;7.90;;;2.72;;
44276;SDS011;29973;43.742;1.236;2023-05-07T11:48:16;8.48;;;2.05;;
44276;SDS011;29973;43.742;1.236;2023-05-07T11:53:17;16.65;;;2.60;;
44276;SDS011;29973;43.742;1.236;2023-05-07T11:55:44;9.32;;;2.60;;
44276;SDS011;29973;43.742;1.236;2023-05-07T11:58:11;7.00;;;2.50;;
44276;SDS011;29973;43.742;1.236;2023-05-07T12:00:51;11.02;;;2.42;;
44276;SDS011;29973;43.742;1.236;2023-05-07T12:03:18;9.93;;;2.30;;
44276;SDS011;29973;43.742;1.236;2023-05-07T12:05:45;8.48;;;2.20;;
44276;SDS011;29973;43.742;1.236;2023-05-07T12:08:15;11.55;;;2.42;;
44276;SDS011;29973;43.742;1.236;2023-05-07T12:10:42;8.60;;;2.45;;
44276;SDS011;29973;43.742;1.236;2023-05-07T12:15:41;11.82;;;2.28;;
44276;SDS011;29973;43.742;1.236;2023-05-07T12:18:07;6.30;;;2.00;;
44276;SDS011;29973;43.742;1.236;2023-05-07T12:20:34;6.80;;;1.90;;
44276;SDS011;29973;43.742;1.236;2023-05-07T12:23:01;12.52;;;2.35;;
44276;SDS011;29973;43.742;1.236;2023-05-07T12:25:30;5.70;;;2.42;;
44276;SDS011;29973;43.742;1.236;2023-05-07T12:27:56;8.50;;;2.35;;
44276;SDS011;29973;43.742;1.236;2023-05-07T12:30:24;7.63;;;2.50;;
44276;SDS011;29973;43.742;1.236;2023-05-07T12:32:53;10.82;;;2.28;;
44276;SDS011;29973;43.742;1.236;2023-05-07T12:35:26;7.10;;;1.67;;
44276;SDS011;29973;43.742;1.236;2023-05-07T12:38:07;7.57;;;1.50;;
44276;SDS011;29973;43.742;1.236;2023-05-07T12:40:40;7.60;;;1.90;;
44276;SDS011;29973;43.742;1.236;2023-05-07T12:43:19;4.57;;;1.70;;
44276;SDS011;29973;43.742;1.236;2023-05-07T12:45:53;8.68;;;2.20;;
44276;SDS011;29973;43.742;1.236;2023-05-07T12:48:20;6.82;;;1.90;;
44276;SDS011;29973;43.742;1.236;2023-05-07T12:50:50;6.20;;;1.95;;
44276;SDS011;29973;43.742;1.236;2023-05-07T12:53:16;10.63;;;2.40;;
44276;SDS011;29973;43.742;1.236;2023-05-07T12:55:45;7.45;;;2.33;;
44276;SDS011;29973;43.742;1.236;2023-05-07T12:58:19;8.00;;;2.42;;
44276;SDS011;29973;43.742;1.236;2023-05-07T13:00:53;10.68;;;2.20;;
44276;SDS011;29973;43.742;1.236;2023-05-07T13:05:50;6.78;;;1.73;;
44276;SDS011;29973;43.742;1.236;2023-05-07T13:11:12;6.13;;;2.13;;
44276;SDS011;29973;43.742;1.236;2023-05-07T13:13:39;8.88;;;1.88;;
44276;SDS011;29973;43.742;1.236;2023-05-07T13:16:06;8.35;;;2.10;;
44276;SDS011;29973;43.742;1.236;2023-05-07T13:18:33;10.65;;;2.40;;
44276;SDS011;29973;43.742;1.236;2023-05-07T13:21:00;5.55;;;1.45;;
44276;SDS011;29973;43.742;1.236;2023-05-07T13:23:26;8.60;;;2.10;;
44276;SDS011;29973;43.742;1.236;2023-05-07T13:25:52;7.15;;;2.00;;
44276;SDS011;29973;43.742;1.236;2023-05-07T13:28:22;10.60;;;2.03;;
44276;SDS011;29973;43.742;1.236;2023-05-07T13:30:50;7.25;;;1.90;;
44276;SDS011;29973;43.742;1.236;2023-05-07T13:33:17;5.47;;;1.77;;
44276;SDS011;29973;43.742;1.236;2023-05-07T13:35:43;8.25;;;1.80;;
44276;SDS011;29973;43.742;1.236;2023-05-07T13:38:09;4.05;;;1.40;;
44276;SDS011;29973;43.742;1.236;2023-05-07T13:40:35;5.57;;;1.80;;
44276;SDS011;29973;43.742;1.236;2023-05-07T13:45:29;8.57;;;2.10;;
44276;SDS011;29973;43.742;1.236;2023-05-07T13:47:55;5.25;;;1.50;;
44276;SDS011;29973;43.742;1.236;2023-05-07T13:50:21;4.43;;;1.60;;
44276;SDS011;29973;43.742;1.236;2023-05-07T13:52:47;6.43;;;1.90;;
44276;SDS011;29973;43.742;1.236;2023-05-07T13:55:19;7.95;;;2.20;;
44276;SDS011;29973;43.742;1.236;2023-05-07T13:57:46;7.00;;;1.65;;
44276;SDS011;29973;43.742;1.236;2023-05-07T14:00:13;10.77;;;1.77;;
44276;SDS011;29973;43.742;1.236;2023-05-07T14:02:39;6.35;;;1.80;;
44276;SDS011;29973;43.742;1.236;2023-05-07T14:05:05;6.75;;;1.95;;
44276;SDS011;29973;43.742;1.236;2023-05-07T14:09:59;5.47;;;1.70;;
44276;SDS011;29973;43.742;1.236;2023-05-07T14:12:25;6.00;;;1.95;;
44276;SDS011;29973;43.742;1.236;2023-05-07T14:14:51;10.10;;;2.15;;
44276;SDS011;29973;43.742;1.236;2023-05-07T14:17:17;7.78;;;1.60;;
44276;SDS011;29973;43.742;1.236;2023-05-07T14:19:43;7.40;;;1.63;;
44276;SDS011;29973;43.742;1.236;2023-05-07T14:22:09;4.15;;;1.80;;
44276;SDS011;29973;43.742;1.236;2023-05-07T14:24:35;7.82;;;1.75;;
44276;SDS011;29973;43.742;1.236;2023-05-07T14:27:01;6.75;;;1.67;;
44276;SDS011;29973;43.742;1.236;2023-05-07T14:29:27;8.38;;;2.17;;
44276;SDS011;29973;43.742;1.236;2023-05-07T14:31:53;8.05;;;1.98;;
44276;SDS011;29973;43.742;1.236;2023-05-07T14:34:18;8.38;;;2.30;;
44276;SDS011;29973;43.742;1.236;2023-05-07T14:36:45;7.93;;;2.08;;
44276;SDS011;29973;43.742;1.236;2023-05-07T14:39:11;5.90;;;1.70;;
44276;SDS011;29973;43.742;1.236;2023-05-07T14:41:36;4.10;;;1.30;;
44276;SDS011;29973;43.742;1.236;2023-05-07T14:44:02;4.90;;;1.65;;
44276;SDS011;29973;43.742;1.236;2023-05-07T14:46:29;5.15;;;1.83;;
44276;SDS011;29973;43.742;1.236;2023-05-07T14:48:56;7.07;;;1.90;;
44276;SDS011;29973;43.742;1.236;2023-05-07T14:51:22;5.32;;;1.60;;
44276;SDS011;29973;43.742;1.236;2023-05-07T14:53:49;6.10;;;1.58;;
44276;SDS011;29973;43.742;1.236;2023-05-07T14:56:15;7.47;;;1.90;;
44276;SDS011;29973;43.742;1.236;2023-05-07T14:58:42;10.43;;;2.13;;
44276;SDS011;29973;43.742;1.236;2023-05-07T15:03:36;10.98;;;2.55;;
44276;SDS011;29973;43.742;1.236;2023-05-07T15:06:02;16.38;;;2.38;;
44276;SDS011;29973;43.742;1.236;2023-05-07T15:08:28;7.70;;;1.92;;
44276;SDS011;29973;43.742;1.236;2023-05-07T15:10:53;12.10;;;2.75;;
44276;SDS011;29973;43.742;1.236;2023-05-07T15:13:20;8.45;;;2.30;;